Time;durP1;ratioP1;P1;durP2;ratioP2;P2;SDS_P1;SDS_P2;PMS_P1;PMS_P2;Temp;Humidity;BMP_temperature;BMP_pressure;BME280_temperature;BME280_humidity;BME280_pressure;Samples;Min_cycle;Max_cycle;Signal;HPM_P1;HPM_P2
2023/04/18 00:01:44;;;;;;;13.25;8.65;;;10.40;70.90;;;;;;5020943;28;20061;-61
2023/04/18 00:04:10;;;;;;;12.68;8.77;;;10.40;70.80;;;;;;5018177;28;20046;-61
2023/04/18 00:06:36;;;;;;;14.07;8.93;;;10.40;71.50;;;;;;5018664;28;20042;-61
2023/04/18 00:09:02;;;;;;;10.75;8.98;;;10.40;70.90;;;;;;5031081;28;20041;-63
2023/04/18 00:11:29;;;;;;;14.10;9.07;;;10.40;71.00;;;;;;5019776;28;20036;-61
2023/04/18 00:13:56;;;;;;;13.32;9.75;;;10.40;70.90;;;;;;5016703;28;20084;-63
2023/04/18 00:16:27;;;;;;;14.52;9.23;;;10.40;70.70;;;;;;5020034;28;20026;-61
2023/04/18 00:18:53;;;;;;;10.77;8.55;;;10.40;70.60;;;;;;5028128;28;20061;-62
2023/04/18 00:21:18;;;;;;;11.23;8.90;;;10.40;70.60;;;;;;5021480;28;20022;-63
2023/04/18 00:23:45;;;;;;;14.70;9.65;;;10.40;70.70;;;;;;5022277;28;20049;-61
2023/04/18 00:26:10;;;;;;;13.93;9.02;;;10.40;70.70;;;;;;5021001;28;20116;-61
2023/04/18 00:28:36;;;;;;;11.93;9.30;;;10.40;70.70;;;;;;5020915;28;20084;-61
2023/04/18 00:31:02;;;;;;;11.30;8.73;;;10.40;70.70;;;;;;5019036;28;20045;-61
2023/04/18 00:33:28;;;;;;;11.73;7.95;;;10.40;70.70;;;;;;5029326;28;20528;-63
2023/04/18 00:35:54;;;;;;;11.88;8.20;;;10.40;70.70;;;;;;5021787;28;20018;-62
2023/04/18 00:38:19;;;;;;;11.13;8.85;;;10.40;70.70;;;;;;5016918;28;20065;-62
2023/04/18 00:40:45;;;;;;;10.60;8.48;;;10.40;70.70;;;;;;5014412;28;20026;-61
2023/04/18 00:43:15;;;;;;;11.00;8.85;;;10.40;70.60;;;;;;5024833;28;20039;-61
2023/04/18 00:45:40;;;;;;;11.10;8.48;;;10.40;70.80;;;;;;5022728;28;20056;-64
2023/04/18 00:48:06;;;;;;;11.60;8.95;;;10.40;70.70;;;;;;5018990;28;20037;-61
2023/04/18 00:50:32;;;;;;;14.88;10.07;;;10.40;70.70;;;;;;5023711;28;20137;-62
2023/04/18 00:52:58;;;;;;;11.13;8.38;;;10.40;70.60;;;;;;5023477;28;20037;-63
2023/04/18 00:55:24;;;;;;;15.00;8.80;;;10.40;70.60;;;;;;5027137;28;20033;-62
2023/04/18 00:57:50;;;;;;;11.98;8.77;;;10.40;70.60;;;;;;5015150;28;20034;-61
2023/04/18 01:00:16;;;;;;;10.50;8.38;;;10.40;70.60;;;;;;5021104;28;20030;-62
2023/04/18 01:02:42;;;;;;;16.88;8.48;;;10.40;70.60;;;;;;5024186;28;20026;-60
2023/04/18 01:05:08;;;;;;;12.02;8.40;;;10.40;70.60;;;;;;5013939;28;20031;-61
2023/04/18 01:07:36;;;;;;;11.43;8.45;;;10.40;70.60;;;;;;5019061;28;20453;-61
2023/04/18 01:10:05;;;;;;;11.25;8.20;;;10.30;70.60;;;;;;5019800;28;20041;-62
2023/04/18 01:12:31;;;;;;;11.52;8.52;;;10.30;70.60;;;;;;5022129;28;20034;-61
2023/04/18 01:14:59;;;;;;;11.07;8.48;;;10.30;70.60;;;;;;5037679;28;20381;-61
2023/04/18 01:17:27;;;;;;;11.35;8.02;;;10.30;70.60;;;;;;5018443;28;20026;-63
2023/04/18 01:19:52;;;;;;;10.07;8.32;;;10.20;70.60;;;;;;5029911;28;20025;-62
2023/04/18 01:22:19;;;;;;;12.27;8.65;;;10.30;70.70;;;;;;5025644;28;20018;-62
2023/04/18 01:24:44;;;;;;;11.32;8.40;;;10.20;70.70;;;;;;5021292;28;20594;-62
2023/04/18 01:27:14;;;;;;;11.82;8.60;;;10.20;70.70;;;;;;5024298;28;20078;-62
2023/04/18 01:29:40;;;;;;;11.50;8.13;;;10.20;70.70;;;;;;5018634;28;20034;-62
2023/04/18 01:32:06;;;;;;;13.60;9.00;;;10.20;70.80;;;;;;5021281;28;20077;-62
2023/04/18 01:34:31;;;;;;;12.80;8.77;;;10.20;70.80;;;;;;5020434;28;20034;-63
2023/04/18 01:36:58;;;;;;;13.32;8.75;;;10.20;70.90;;;;;;5015880;28;20057;-61
2023/04/18 01:39:23;;;;;;;11.50;8.55;;;10.20;70.90;;;;;;5021098;28;20061;-61
2023/04/18 01:41:49;;;;;;;10.70;8.45;;;10.20;70.90;;;;;;4917981;28;20026;-61
2023/04/18 01:44:15;;;;;;;12.15;9.00;;;10.20;70.90;;;;;;5019016;28;20032;-62
2023/04/18 01:46:40;;;;;;;13.18;8.98;;;10.20;71.00;;;;;;5017624;28;20026;-61
2023/04/18 01:49:07;;;;;;;11.93;8.23;;;10.20;71.00;;;;;;5026899;28;20057;-62
2023/04/18 01:51:33;;;;;;;10.48;8.10;;;10.20;71.00;;;;;;5031667;28;20053;-62
2023/04/18 01:53:59;;;;;;;13.68;9.60;;;10.10;70.90;;;;;;5018065;28;20041;-62
2023/04/18 01:56:25;;;;;;;11.95;8.93;;;10.10;71.10;;;;;;5025882;28;20018;-61
2023/04/18 01:58:51;;;;;;;13.35;8.95;;;10.10;71.00;;;;;;5033214;28;20449;-62
2023/04/18 02:01:16;;;;;;;11.90;9.23;;;10.10;71.10;;;;;;5022160;28;20026;-61
2023/04/18 02:03:42;;;;;;;14.30;9.27;;;10.10;71.10;;;;;;5025053;28;20034;-61
2023/04/18 02:06:08;;;;;;;14.00;8.75;;;10.10;71.80;;;;;;5020503;28;20038;-61
2023/04/18 02:08:34;;;;;;;12.82;9.18;;;10.10;71.10;;;;;;5025062;28;20029;-62
2023/04/18 02:11:00;;;;;;;12.05;8.57;;;10.10;71.10;;;;;;5018762;28;20092;-62
2023/04/18 02:13:26;;;;;;;14.57;9.10;;;10.10;71.10;;;;;;5017643;28;20507;-63
2023/04/18 02:15:52;;;;;;;10.63;8.52;;;10.10;71.10;;;;;;5024560;28;20049;-61
2023/04/18 02:18:18;;;;;;;11.95;8.85;;;10.10;71.20;;;;;;5019345;28;20041;-62
2023/04/18 02:20:43;;;;;;;11.55;9.38;;;10.10;71.20;;;;;;5013697;28;20106;-62
2023/04/18 02:23:09;;;;;;;12.63;9.27;;;10.10;71.20;;;;;;5016098;28;20118;-62
2023/04/18 02:25:35;;;;;;;10.98;8.55;;;10.20;71.20;;;;;;5037890;28;20107;-61
2023/04/18 02:28:01;;;;;;;12.20;9.05;;;10.20;71.20;;;;;;5027270;28;20057;-61
2023/04/18 02:30:27;;;;;;;12.60;9.10;;;10.10;71.10;;;;;;5034555;28;20046;-61
2023/04/18 02:32:55;;;;;;;11.35;9.18;;;10.20;71.30;;;;;;5045142;28;20041;-63
2023/04/18 02:35:22;;;;;;;13.52;9.77;;;10.10;71.40;;;;;;5026851;28;20029;-62
2023/04/18 02:37:48;;;;;;;10.90;8.93;;;10.20;71.50;;;;;;5025818;28;20062;-61
2023/04/18 02:40:13;;;;;;;13.00;9.07;;;10.20;71.30;;;;;;5026072;28;20038;-62
2023/04/18 02:42:39;;;;;;;11.52;8.82;;;10.20;71.20;;;;;;5025062;28;20022;-62
2023/04/18 02:45:06;;;;;;;12.15;9.13;;;10.20;71.30;;;;;;5023018;28;20030;-61
2023/04/18 02:47:32;;;;;;;13.35;9.00;;;10.20;71.20;;;;;;5026479;28;20094;-62
2023/04/18 02:49:57;;;;;;;13.63;9.23;;;10.20;71.20;;;;;;5033245;28;20065;-62
2023/04/18 02:52:24;;;;;;;13.02;9.27;;;10.20;71.30;;;;;;5017471;28;20492;-62
2023/04/18 02:54:50;;;;;;;13.02;9.80;;;10.20;71.30;;;;;;5024564;28;20049;-61
2023/04/18 02:57:16;;;;;;;11.32;9.05;;;10.20;71.20;;;;;;5024782;28;20025;-62
2023/04/18 02:59:41;;;;;;;12.98;10.07;;;10.20;71.10;;;;;;5025395;28;20164;-61
2023/04/18 03:02:08;;;;;;;14.45;9.90;;;10.20;71.00;;;;;;5030277;28;20038;-62
2023/04/18 03:04:34;;;;;;;11.65;9.25;;;10.20;71.00;;;;;;5043175;28;20093;-62
2023/04/18 03:07:00;;;;;;;13.05;9.95;;;10.20;71.00;;;;;;5029071;28;20037;-62
2023/04/18 03:09:26;;;;;;;12.13;10.00;;;10.10;70.90;;;;;;5025495;28;20365;-61
2023/04/18 03:11:51;;;;;;;12.75;10.13;;;10.20;71.00;;;;;;5041529;28;20045;-62
2023/04/18 03:14:17;;;;;;;11.55;9.27;;;10.10;71.00;;;;;;5022011;28;20041;-61
2023/04/18 03:16:43;;;;;;;11.55;9.15;;;10.10;70.90;;;;;;5018749;28;20457;-62
2023/04/18 03:19:09;;;;;;;10.93;8.98;;;10.10;71.10;;;;;;5034568;28;20095;-62
2023/04/18 03:21:35;;;;;;;12.40;9.20;;;10.10;71.10;;;;;;5027562;28;20026;-62
2023/04/18 03:24:00;;;;;;;16.05;9.75;;;10.10;71.20;;;;;;5022912;28;20038;-63
2023/04/18 03:26:27;;;;;;;15.20;10.27;;;10.20;71.10;;;;;;5030908;28;20025;-61
2023/04/18 03:28:52;;;;;;;14.25;9.57;;;10.20;71.20;;;;;;5018568;28;20484;-62
2023/04/18 03:31:18;;;;;;;15.23;9.82;;;10.10;71.10;;;;;;5022975;28;20052;-62
2023/04/18 03:33:44;;;;;;;13.20;9.50;;;10.20;71.00;;;;;;5026780;28;20017;-62
2023/04/18 03:36:16;;;;;;;12.27;9.55;;;10.10;71.00;;;;;;5029792;28;20460;-62
2023/04/18 03:38:42;;;;;;;13.07;9.68;;;10.10;71.10;;;;;;5029660;28;20065;-61
2023/04/18 03:41:08;;;;;;;14.20;10.45;;;10.10;71.10;;;;;;5032700;28;20030;-62
2023/04/18 03:43:34;;;;;;;13.23;10.30;;;10.10;71.00;;;;;;5034158;28;20069;-62
2023/04/18 03:46:00;;;;;;;13.35;10.43;;;10.10;71.00;;;;;;5030953;28;20034;-62
2023/04/18 03:48:25;;;;;;;14.70;10.73;;;10.10;71.10;;;;;;5020838;28;20036;-63
2023/04/18 03:50:51;;;;;;;13.68;10.23;;;10.10;71.10;;;;;;5028538;28;20026;-63
2023/04/18 03:53:17;;;;;;;15.57;11.10;;;10.10;71.20;;;;;;5025447;28;20842;-63
2023/04/18 03:55:42;;;;;;;13.68;10.50;;;10.10;71.30;;;;;;5026186;28;20045;-62
2023/04/18 03:58:08;;;;;;;12.98;10.35;;;10.10;71.10;;;;;;5027653;28;20026;-62
2023/04/18 04:00:34;;;;;;;14.60;10.20;;;10.10;71.20;;;;;;5025901;28;20033;-61
2023/04/18 04:03:00;;;;;;;17.13;11.13;;;10.10;71.20;;;;;;5017608;28;20113;-62
2023/04/18 04:05:26;;;;;;;14.18;10.75;;;10.10;71.30;;;;;;5028880;28;20069;-61
2023/04/18 04:07:52;;;;;;;14.32;10.50;;;10.10;71.30;;;;;;5020937;28;20396;-61
2023/04/18 04:10:18;;;;;;;14.43;10.75;;;10.00;71.20;;;;;;5024435;28;20041;-62
2023/04/18 04:12:43;;;;;;;13.63;10.65;;;10.10;71.40;;;;;;5034619;28;20510;-62
2023/04/18 04:15:10;;;;;;;15.98;11.38;;;10.10;71.40;;;;;;5026622;28;20022;-60
2023/04/18 04:17:35;;;;;;;16.65;12.23;;;10.10;71.30;;;;;;5024765;28;20372;-62
2023/04/18 04:20:02;;;;;;;14.02;11.15;;;10.10;71.40;;;;;;5032377;28;20028;-61
2023/04/18 04:22:27;;;;;;;20.70;12.48;;;10.10;71.30;;;;;;5031599;28;20014;-61
2023/04/18 04:24:56;;;;;;;16.02;11.98;;;10.10;71.30;;;;;;5032262;28;20025;-62
2023/04/18 04:27:23;;;;;;;15.48;11.45;;;10.10;71.20;;;;;;5028494;28;20447;-64
2023/04/18 04:29:51;;;;;;;14.95;10.65;;;10.10;71.30;;;;;;5025577;28;20042;-62
2023/04/18 04:32:17;;;;;;;16.23;11.48;;;10.10;71.20;;;;;;5017728;28;20030;-63
2023/04/18 04:34:45;;;;;;;14.93;10.98;;;10.10;71.30;;;;;;5029473;28;20022;-61
2023/04/18 04:37:12;;;;;;;16.67;11.98;;;10.10;71.30;;;;;;5021778;28;20077;-61
2023/04/18 04:39:38;;;;;;;17.88;11.25;;;10.10;71.40;;;;;;5031061;28;20040;-63
2023/04/18 04:42:04;;;;;;;15.05;11.18;;;10.10;71.40;;;;;;5027898;28;20420;-62
2023/04/18 04:44:30;;;;;;;17.35;10.93;;;10.00;71.40;;;;;;5039665;28;20030;-62
2023/04/18 04:46:55;;;;;;;15.90;11.32;;;10.00;71.40;;;;;;5036466;28;20071;-63
2023/04/18 04:49:21;;;;;;;17.85;10.93;;;10.00;71.50;;;;;;5031621;28;20033;-64
2023/04/18 04:51:47;;;;;;;19.48;11.10;;;10.00;71.50;;;;;;5023415;28;20718;-63
2023/04/18 04:54:13;;;;;;;17.02;12.15;;;10.10;71.50;;;;;;5025284;28;20156;-63
2023/04/18 04:56:39;;;;;;;15.18;10.98;;;10.10;71.50;;;;;;5034078;28;20053;-64
2023/04/18 04:59:04;;;;;;;16.20;11.27;;;10.10;71.50;;;;;;5024748;28;20034;-62
2023/04/18 05:01:30;;;;;;;16.75;11.27;;;10.10;71.70;;;;;;5061713;28;20024;-62
2023/04/18 05:03:56;;;;;;;17.10;12.13;;;10.10;71.70;;;;;;5020403;28;20494;-62
2023/04/18 05:06:22;;;;;;;18.52;12.63;;;10.10;71.70;;;;;;5044101;28;20552;-63
2023/04/18 05:08:49;;;;;;;15.48;11.73;;;10.10;71.60;;;;;;5028549;28;20017;-62
2023/04/18 05:11:15;;;;;;;16.48;11.65;;;10.20;71.70;;;;;;5030689;28;20037;-62
2023/04/18 05:13:41;;;;;;;20.15;12.20;;;10.20;71.70;;;;;;5024406;28;20089;-62
2023/04/18 05:16:07;;;;;;;17.30;12.02;;;10.20;71.60;;;;;;5022199;28;20068;-62
2023/04/18 05:18:33;;;;;;;14.70;11.50;;;10.20;72.40;;;;;;5027452;28;20026;-61
2023/04/18 05:20:59;;;;;;;14.88;10.85;;;10.20;71.60;;;;;;5019626;28;20054;-61
2023/04/18 05:23:24;;;;;;;16.75;12.02;;;10.20;71.60;;;;;;5028497;28;20029;-62
2023/04/18 05:25:51;;;;;;;16.58;11.75;;;10.20;71.50;;;;;;5028176;28;20028;-61
2023/04/18 05:28:16;;;;;;;18.98;12.95;;;10.20;71.40;;;;;;5027859;28;20026;-61
2023/04/18 05:30:44;;;;;;;18.45;12.80;;;10.30;71.50;;;;;;5027213;28;20060;-62
2023/04/18 05:33:10;;;;;;;17.88;12.38;;;10.30;71.50;;;;;;5020567;28;20028;-62
2023/04/18 05:35:36;;;;;;;18.42;13.02;;;10.40;71.50;;;;;;5030393;28;20029;-61
2023/04/18 05:38:01;;;;;;;20.73;13.15;;;10.30;71.30;;;;;;5033345;28;20064;-62
2023/04/18 05:40:29;;;;;;;17.73;12.93;;;10.30;72.00;;;;;;5017049;28;20026;-62
2023/04/18 05:42:54;;;;;;;17.83;12.45;;;10.30;71.40;;;;;;5030116;28;20088;-60
2023/04/18 05:45:20;;;;;;;17.80;13.18;;;10.30;71.30;;;;;;5024943;28;20029;-61
2023/04/18 05:47:46;;;;;;;21.55;13.52;;;10.30;71.40;;;;;;5029393;28;20060;-63
2023/04/18 05:50:11;;;;;;;18.98;13.23;;;10.40;71.60;;;;;;5032755;28;20049;-62
2023/04/18 05:52:40;;;;;;;19.30;13.38;;;10.30;71.40;;;;;;5046044;28;20040;-62
2023/04/18 05:55:06;;;;;;;21.50;13.13;;;10.40;71.40;;;;;;5029509;28;20069;-62
2023/04/18 05:57:31;;;;;;;17.80;13.32;;;10.40;71.60;;;;;;5023832;28;20079;-63
2023/04/18 05:59:57;;;;;;;18.55;12.88;;;10.40;71.50;;;;;;5027754;28;20026;-61
2023/04/18 06:02:23;;;;;;;18.45;12.88;;;10.50;71.40;;;;;;5050051;28;20545;-64
2023/04/18 06:04:49;;;;;;;17.48;12.45;;;10.50;71.30;;;;;;5027562;28;20540;-65
2023/04/18 06:07:14;;;;;;;18.52;12.40;;;10.50;71.40;;;;;;5028185;28;20018;-65
2023/04/18 06:09:40;;;;;;;18.02;13.57;;;10.60;71.40;;;;;;5029323;28;20096;-65
2023/04/18 06:12:06;;;;;;;20.95;12.85;;;10.60;71.10;;;;;;5025817;28;20086;-65
2023/04/18 06:14:31;;;;;;;18.63;12.55;;;10.60;70.90;;;;;;5015871;28;20610;-66
2023/04/18 06:16:57;;;;;;;16.67;12.07;;;10.60;71.00;;;;;;5018802;28;20034;-65
2023/04/18 06:19:23;;;;;;;18.38;13.43;;;10.60;71.10;;;;;;5027371;28;20025;-65
2023/04/18 06:21:49;;;;;;;20.55;13.75;;;10.60;71.10;;;;;;5028116;28;20037;-65
2023/04/18 06:24:15;;;;;;;21.02;14.48;;;10.70;71.10;;;;;;5027983;28;20038;-64
2023/04/18 06:26:40;;;;;;;17.95;12.77;;;10.70;70.90;;;;;;5023565;28;20026;-64
2023/04/18 06:29:06;;;;;;;20.63;14.35;;;10.70;70.90;;;;;;5046025;28;20033;-65
2023/04/18 06:31:32;;;;;;;19.50;13.48;;;10.70;71.00;;;;;;5052191;28;20041;-64
2023/04/18 06:33:57;;;;;;;19.90;13.32;;;10.70;70.70;;;;;;5028409;28;20037;-64
2023/04/18 06:36:23;;;;;;;22.38;14.57;;;10.70;70.70;;;;;;5034675;28;20072;-64
2023/04/18 06:38:49;;;;;;;19.33;13.77;;;10.70;70.60;;;;;;5026668;28;20024;-65
2023/04/18 06:41:15;;;;;;;19.55;13.70;;;10.70;70.50;;;;;;5027530;28;20033;-65
2023/04/18 06:43:43;;;;;;;18.77;14.25;;;10.70;70.50;;;;;;5021733;28;20068;-64
2023/04/18 06:46:10;;;;;;;20.80;14.35;;;10.70;70.70;;;;;;5027712;28;20030;-65
2023/04/18 06:48:36;;;;;;;16.85;12.98;;;10.70;70.70;;;;;;5034641;28;20014;-63
2023/04/18 06:51:03;;;;;;;22.20;14.27;;;10.80;71.10;;;;;;5030273;28;20378;-65
2023/04/18 06:53:29;;;;;;;20.58;14.05;;;10.80;71.20;;;;;;5035797;28;20496;-64
2023/04/18 06:55:55;;;;;;;18.98;13.25;;;10.80;71.00;;;;;;5024647;28;20045;-64
2023/04/18 06:58:21;;;;;;;19.95;13.35;;;10.90;70.90;;;;;;5027186;28;20022;-64
2023/04/18 07:00:50;;;;;;;17.48;12.73;;;10.90;70.80;;;;;;5037111;28;20080;-65
2023/04/18 07:03:17;;;;;;;25.30;13.70;;;10.90;70.90;;;;;;5017191;28;20030;-65
2023/04/18 07:05:43;;;;;;;18.02;12.88;;;11.00;71.00;;;;;;5053256;28;20046;-64
2023/04/18 07:08:08;;;;;;;18.45;13.85;;;11.10;71.20;;;;;;5031505;28;20096;-64
2023/04/18 07:10:34;;;;;;;18.70;13.20;;;11.20;70.80;;;;;;5022531;28;20045;-64
2023/04/18 07:13:00;;;;;;;18.17;13.32;;;11.30;70.60;;;;;;5030268;28;20033;-64
2023/04/18 07:15:28;;;;;;;20.48;14.13;;;11.30;70.50;;;;;;5031261;28;20049;-64
2023/04/18 07:17:54;;;;;;;18.75;13.60;;;11.40;70.60;;;;;;5018329;28;20429;-64
2023/04/18 07:20:19;;;;;;;17.17;12.45;;;11.50;70.40;;;;;;5040778;28;20046;-65
2023/04/18 07:22:46;;;;;;;19.08;12.98;;;11.60;70.80;;;;;;5031269;28;20033;-64
2023/04/18 07:25:12;;;;;;;19.30;13.25;;;11.70;71.00;;;;;;5029997;28;20288;-65
2023/04/18 07:27:38;;;;;;;19.30;14.05;;;11.90;70.80;;;;;;5027396;28;20034;-64
2023/04/18 07:30:04;;;;;;;16.67;12.35;;;12.10;70.40;;;;;;5024917;28;20038;-64
2023/04/18 07:32:30;;;;;;;17.77;12.98;;;12.20;69.70;;;;;;5024904;28;20073;-65
2023/04/18 07:34:56;;;;;;;18.02;12.43;;;12.30;69.50;;;;;;5030991;28;20029;-64
2023/04/18 07:37:22;;;;;;;17.92;12.38;;;12.40;69.00;;;;;;5028477;28;20046;-64
2023/04/18 07:39:48;;;;;;;17.23;11.80;;;12.40;68.90;;;;;;5033344;28;20026;-64
2023/04/18 07:42:13;;;;;;;17.83;13.05;;;12.50;68.80;;;;;;5028311;28;20033;-64
2023/04/18 07:44:39;;;;;;;16.85;12.15;;;12.50;68.90;;;;;;5025967;28;20033;-65
2023/04/18 07:47:10;;;;;;;15.63;11.85;;;12.60;68.90;;;;;;5024202;28;20114;-66
2023/04/18 07:49:37;;;;;;;17.02;12.27;;;12.60;68.50;;;;;;5018526;28;20109;-65
2023/04/18 07:52:03;;;;;;;17.23;11.88;;;12.70;68.20;;;;;;5035044;28;20033;-66
2023/04/18 07:54:29;;;;;;;17.33;12.30;;;12.70;68.20;;;;;;5021468;28;20026;-66
2023/04/18 07:56:55;;;;;;;18.10;13.52;;;12.70;69.10;;;;;;5035582;28;20028;-66
2023/04/18 07:59:21;;;;;;;15.05;11.95;;;12.80;68.60;;;;;;5029445;28;20392;-65
2023/04/18 08:01:47;;;;;;;16.38;12.18;;;12.90;68.80;;;;;;5026338;28;20089;-66
2023/04/18 08:04:13;;;;;;;18.38;11.80;;;13.10;69.20;;;;;;5024634;28;20052;-66
2023/04/18 08:06:39;;;;;;;19.33;11.85;;;13.30;68.30;;;;;;5028014;28;20018;-66
2023/04/18 08:09:05;;;;;;;17.30;13.20;;;13.40;68.70;;;;;;5027294;28;20044;-66
2023/04/18 08:11:34;;;;;;;18.00;12.65;;;13.60;68.20;;;;;;5028180;28;20060;-66
2023/04/18 08:14:00;;;;;;;15.15;11.25;;;13.80;66.00;;;;;;5020274;28;20476;-66
2023/04/18 08:16:26;;;;;;;14.60;11.40;;;13.90;66.50;;;;;;5042259;28;20073;-67
2023/04/18 08:18:51;;;;;;;16.13;11.73;;;14.00;66.30;;;;;;5024428;28;20029;-66
2023/04/18 08:21:18;;;;;;;25.92;12.52;;;14.00;66.00;;;;;;5027702;28;20089;-66
2023/04/18 08:23:44;;;;;;;14.82;11.70;;;14.10;65.40;;;;;;5014312;28;20426;-66
2023/04/18 08:26:10;;;;;;;16.23;11.30;;;14.10;64.90;;;;;;5040150;28;20050;-66
2023/04/18 08:28:35;;;;;;;18.70;11.82;;;14.10;65.00;;;;;;5028736;28;20025;-67
2023/04/18 08:31:01;;;;;;;16.38;12.23;;;14.10;64.50;;;;;;5036901;28;20049;-66
2023/04/18 08:33:28;;;;;;;18.42;12.15;;;14.10;64.40;;;;;;5029512;28;20388;-67
2023/04/18 08:35:54;;;;;;;16.35;10.73;;;14.10;64.10;;;;;;5031905;28;20049;-66
2023/04/18 08:38:20;;;;;;;13.55;10.18;;;14.10;64.40;;;;;;5017239;28;20061;-66
2023/04/18 08:40:46;;;;;;;15.40;10.95;;;14.10;64.60;;;;;;5024038;28;20029;-65
2023/04/18 08:43:13;;;;;;;17.52;11.88;;;14.00;64.30;;;;;;5030286;28;20048;-67
2023/04/18 08:45:44;;;;;;;19.48;12.50;;;14.00;63.70;;;;;;5028378;28;20021;-66
2023/04/18 08:48:15;;;;;;;17.17;11.68;;;14.00;63.20;;;;;;5044688;28;20034;-66
2023/04/18 08:50:41;;;;;;;15.90;10.57;;;14.00;63.20;;;;;;5029525;28;20039;-66
2023/04/18 08:53:07;;;;;;;13.95;10.65;;;13.90;63.60;;;;;;5029422;28;20049;-66
2023/04/18 08:55:32;;;;;;;16.17;10.98;;;13.90;64.10;;;;;;5037362;28;20029;-66
2023/04/18 08:57:58;;;;;;;18.90;11.65;;;13.80;64.40;;;;;;5039350;28;20081;-66
2023/04/18 09:00:26;;;;;;;14.98;10.77;;;13.80;64.10;;;;;;5033466;28;20083;-67
2023/04/18 09:02:58;;;;;;;13.57;10.68;;;13.80;64.00;;;;;;5035632;28;20053;-66
2023/04/18 09:05:25;;;;;;;17.08;9.82;;;13.80;64.50;;;;;;5026999;28;20093;-66
2023/04/18 09:07:55;;;;;;;15.95;10.52;;;13.80;65.00;;;;;;5021116;28;20053;-67
2023/04/18 09:10:28;;;;;;;14.10;10.05;;;13.90;65.40;;;;;;5025761;28;20137;-66
2023/04/18 09:12:55;;;;;;;14.82;10.68;;;13.90;65.50;;;;;;5037229;28;20029;-66
2023/04/18 09:15:23;;;;;;;14.38;9.70;;;14.00;65.00;;;;;;5031266;28;20028;-66
2023/04/18 09:17:52;;;;;;;14.75;10.25;;;14.00;65.10;;;;;;5030693;28;20028;-66
2023/04/18 09:20:42;;;;;;;15.00;10.90;;;14.00;65.40;;;;;;5030781;28;20029;-66
2023/04/18 09:23:20;;;;;;;14.45;10.57;;;14.10;65.60;;;;;;5022476;28;20034;-67
2023/04/18 09:25:47;;;;;;;15.23;9.95;;;14.20;65.80;;;;;;5027889;28;20071;-66
2023/04/18 09:28:25;;;;;;;13.68;10.07;;;14.20;65.80;;;;;;5033170;28;20281;-67
2023/04/18 09:30:51;;;;;;;12.48;9.73;;;14.30;65.00;;;;;;5040722;28;20037;-66
2023/04/18 09:33:26;;;;;;;13.95;10.23;;;14.40;65.20;;;;;;5031995;28;20484;-67
2023/04/18 09:35:52;;;;;;;13.75;10.02;;;14.40;64.30;;;;;;5025479;28;20033;-66
2023/04/18 09:38:18;;;;;;;15.20;10.13;;;14.50;64.60;;;;;;5026824;28;20042;-67
2023/04/18 09:40:45;;;;;;;14.45;9.75;;;14.50;64.30;;;;;;4938744;28;20488;-66
2023/04/18 09:43:20;;;;;;;12.80;9.70;;;14.50;64.10;;;;;;5023811;28;20068;-66
2023/04/18 09:45:47;;;;;;;17.08;9.48;;;14.50;63.70;;;;;;5032772;28;20026;-67
2023/04/18 09:48:13;;;;;;;13.65;10.38;;;14.40;63.30;;;;;;5023827;28;20025;-66
2023/04/18 09:50:41;;;;;;;13.45;9.60;;;14.40;62.40;;;;;;5028388;28;20038;-67
2023/04/18 09:53:07;;;;;;;12.15;8.77;;;14.30;63.10;;;;;;5017089;28;20033;-66
2023/04/18 09:55:34;;;;;;;13.32;9.60;;;14.30;63.60;;;;;;5024367;28;20025;-65
2023/04/18 09:58:02;;;;;;;12.25;8.38;;;14.20;63.40;;;;;;5026191;28;20036;-66
2023/04/18 10:00:29;;;;;;;12.80;8.60;;;14.10;63.80;;;;;;5014616;28;20026;-66
2023/04/18 10:03:09;;;;;;;12.90;8.68;;;14.10;64.00;;;;;;5035271;28;20484;-66
2023/04/18 10:05:38;;;;;;;13.00;8.75;;;14.10;64.20;;;;;;5029355;28;20022;-64
2023/04/18 10:08:04;;;;;;;11.77;8.20;;;14.00;64.20;;;;;;5029759;28;20072;-65
2023/04/18 10:10:31;;;;;;;9.15;7.55;;;14.00;64.10;;;;;;5027135;28;20137;-67
2023/04/18 10:12:59;;;;;;;10.15;7.65;;;14.00;64.20;;;;;;5031390;28;20104;-66
2023/04/18 10:15:26;;;;;;;10.30;8.10;;;14.00;64.10;;;;;;5039324;28;20049;-66
2023/04/18 10:17:55;;;;;;;10.48;7.88;;;14.00;63.90;;;;;;5037204;28;20077;-66
2023/04/18 10:20:27;;;;;;;11.43;7.97;;;14.00;63.90;;;;;;5026386;28;20022;-65
2023/04/18 10:22:54;;;;;;;9.52;7.13;;;14.00;63.90;;;;;;5019431;28;20018;-66
2023/04/18 10:25:49;;;;;;;10.98;7.78;;;14.00;63.90;;;;;;5026334;28;20050;-67
2023/04/18 10:28:16;;;;;;;9.20;7.05;;;14.00;63.80;;;;;;5031678;28;20103;-66
2023/04/18 10:30:44;;;;;;;9.43;6.82;;;14.00;64.20;;;;;;5022240;28;20492;-67
2023/04/18 10:33:21;;;;;;;10.68;6.93;;;14.00;64.10;;;;;;5026175;28;20042;-66
2023/04/18 10:36:13;;;;;;;9.25;7.05;;;14.00;64.10;;;;;;5023623;28;20057;-65
2023/04/18 10:39:21;;;;;;;11.93;7.60;;;14.00;64.50;;;;;;5023040;28;20346;-66
2023/04/18 10:41:50;;;;;;;9.15;6.90;;;14.00;64.40;;;;;;5025687;28;20042;-66
2023/04/18 10:44:18;;;;;;;10.38;7.05;;;14.00;64.50;;;;;;5033782;28;20043;-66
2023/04/18 10:46:47;;;;;;;11.35;7.47;;;14.10;64.60;;;;;;5030245;28;20550;-65
2023/04/18 10:49:19;;;;;;;10.40;7.40;;;14.10;64.60;;;;;;5026976;28;20045;-66
2023/04/18 10:51:58;;;;;;;10.82;6.30;;;14.10;64.50;;;;;;5057391;28;20032;-65
2023/04/18 10:54:37;;;;;;;9.32;6.43;;;14.10;64.20;;;;;;5027937;28;20089;-66
2023/04/18 10:57:04;;;;;;;8.18;6.25;;;14.10;63.70;;;;;;5019054;28;20026;-67
2023/04/18 10:59:31;;;;;;;9.68;7.18;;;14.10;64.30;;;;;;5031547;28;20026;-66
2023/04/18 11:02:29;;;;;;;10.07;7.30;;;14.10;63.70;;;;;;5031458;28;20061;-66
2023/04/18 11:04:56;;;;;;;9.18;6.18;;;14.10;64.20;;;;;;5039123;28;20029;-67
2023/04/18 11:07:35;;;;;;;10.00;6.35;;;14.10;64.70;;;;;;5025936;28;20037;-66
2023/04/18 11:10:00;;;;;;;8.68;6.57;;;14.20;64.80;;;;;;5054649;28;20037;-65
2023/04/18 11:12:31;;;;;;;7.80;6.03;;;14.20;64.80;;;;;;5035406;28;20024;-66
2023/04/18 11:14:57;;;;;;;9.80;6.43;;;14.30;64.50;;;;;;5018743;28;20040;-66
2023/04/18 11:17:31;;;;;;;9.75;6.60;;;14.30;64.40;;;;;;5028231;28;20026;-65
2023/04/18 11:20:23;;;;;;;7.38;5.75;;;14.40;64.30;;;;;;5033538;28;20106;-67
2023/04/18 11:22:55;;;;;;;7.57;5.63;;;14.50;63.60;;;;;;5028297;28;20113;-67
2023/04/18 11:25:35;;;;;;;9.65;5.85;;;14.60;64.00;;;;;;5029183;28;20113;-66
2023/04/18 11:28:03;;;;;;;7.45;5.63;;;14.60;63.70;;;;;;5031026;28;20030;-66
2023/04/18 11:30:39;;;;;;;7.53;5.57;;;14.60;63.50;;;;;;5054827;28;20062;-65
2023/04/18 11:33:10;;;;;;;11.35;6.10;;;14.70;62.80;;;;;;5027548;28;20030;-66
2023/04/18 11:35:45;;;;;;;10.30;5.90;;;14.70;63.00;;;;;;5031978;28;20026;-66
2023/04/18 11:38:12;;;;;;;8.02;5.75;;;14.70;62.60;;;;;;5044187;28;20061;-66
2023/04/18 11:40:38;;;;;;;8.30;5.60;;;14.70;62.70;;;;;;5030650;28;20048;-66
2023/04/18 11:43:05;;;;;;;7.00;5.50;;;14.70;62.60;;;;;;5036303;28;20136;-66
2023/04/18 11:45:32;;;;;;;7.50;6.00;;;14.70;62.60;;;;;;5018988;28;20030;-66
2023/04/18 11:47:59;;;;;;;7.70;5.57;;;14.70;62.80;;;;;;5055982;28;20033;-66
2023/04/18 11:50:26;;;;;;;8.75;6.00;;;14.60;62.80;;;;;;5026715;28;20131;-65
2023/04/18 11:52:53;;;;;;;8.27;5.82;;;14.60;62.60;;;;;;5025208;28;20022;-64
2023/04/18 11:55:22;;;;;;;7.68;5.90;;;14.60;62.70;;;;;;5026149;28;20029;-65
2023/04/18 11:58:01;;;;;;;8.52;5.80;;;14.60;62.00;;;;;;5030297;28;20025;-66
2023/04/18 12:00:33;;;;;;;6.78;5.43;;;14.60;62.50;;;;;;5037521;28;20079;-66
2023/04/18 12:03:00;;;;;;;7.00;5.15;;;14.60;62.00;;;;;;5047623;28;20215;-66
2023/04/18 12:05:34;;;;;;;7.55;5.97;;;14.60;62.30;;;;;;5026185;28;20033;-66
2023/04/18 12:08:05;;;;;;;7.97;6.28;;;14.50;61.70;;;;;;5017831;28;20022;-65
2023/04/18 12:10:31;;;;;;;8.75;6.30;;;14.50;61.60;;;;;;5027582;28;20464;-67
2023/04/18 12:12:58;;;;;;;7.25;5.35;;;14.40;61.60;;;;;;5028520;28;20029;-66
2023/04/18 12:15:28;;;;;;;7.70;5.13;;;14.40;61.90;;;;;;5022215;28;20113;-65
2023/04/18 12:17:59;;;;;;;7.28;5.43;;;14.40;62.50;;;;;;5026599;28;20021;-66
2023/04/18 12:20:38;;;;;;;7.05;5.47;;;14.40;62.50;;;;;;5029512;28;20541;-66
2023/04/18 12:23:05;;;;;;;7.90;5.63;;;14.50;63.10;;;;;;5030420;28;20026;-66
2023/04/18 12:25:31;;;;;;;7.30;5.68;;;14.50;63.00;;;;;;5019334;28;20076;-66
2023/04/18 12:28:00;;;;;;;6.78;5.63;;;14.60;62.40;;;;;;5017468;28;20087;-65
2023/04/18 12:30:33;;;;;;;9.18;6.22;;;14.70;62.30;;;;;;5024804;28;20038;-66
2023/04/18 12:33:01;;;;;;;7.85;6.03;;;14.70;61.40;;;;;;5029171;28;20085;-66
2023/04/18 12:35:28;;;;;;;8.27;5.53;;;14.70;61.90;;;;;;5027455;28;20021;-65